Time;durP1;ratioP1;P1;durP2;ratioP2;P2;SDS_P1;SDS_P2;PMS_P1;PMS_P2;Temp;Humidity;BMP_temperature;BMP_pressure;BME280_temperature;BME280_humidity;BME280_pressure;Samples;Min_cycle;Max_cycle;Signal;HPM_P1;HPM_P2
2023/01/28 00:00:14;;;;;;;3.67;3.37;;;3.80;99.90;;;;;;5043408;28;20209;-80
2023/01/28 00:02:41;;;;;;;4.13;3.73;;;3.80;99.90;;;;;;5038617;28;20214;-81
2023/01/28 00:05:08;;;;;;;3.57;3.27;;;3.80;99.90;;;;;;5023644;28;20252;-81
2023/01/28 00:07:35;;;;;;;4.83;3.10;;;3.80;99.90;;;;;;5022981;28;20197;-80
2023/01/28 00:10:02;;;;;;;3.97;3.40;;;3.80;99.90;;;;;;5045897;28;20316;-80
2023/01/28 00:12:29;;;;;;;4.63;3.93;;;3.80;99.90;;;;;;5063476;28;20814;-79
2023/01/28 00:14:56;;;;;;;4.20;3.37;;;3.80;99.90;;;;;;5063983;28;20205;-84
2023/01/28 00:17:25;;;;;;;5.07;3.60;;;3.80;99.90;;;;;;5055401;28;20206;-82
2023/01/28 00:19:52;;;;;;;3.53;3.23;;;3.80;99.90;;;;;;5043019;28;20221;-80
2023/01/28 00:22:19;;;;;;;3.67;3.37;;;3.80;99.90;;;;;;5042844;28;20881;-83
2023/01/28 00:24:46;;;;;;;7.00;4.10;;;3.80;99.90;;;;;;5041834;28;20201;-82
2023/01/28 00:27:14;;;;;;;3.77;3.37;;;3.80;99.90;;;;;;5042777;28;20232;-84
2023/01/28 00:29:41;;;;;;;5.13;3.33;;;3.80;99.90;;;;;;5042069;28;20194;-81
2023/01/28 00:32:08;;;;;;;5.20;3.70;;;3.80;99.90;;;;;;5042646;28;20229;-81
2023/01/28 00:34:36;;;;;;;3.80;3.50;;;3.80;99.90;;;;;;5044789;28;20316;-80
2023/01/28 00:37:04;;;;;;;4.47;3.97;;;3.80;99.90;;;;;;5046944;28;20206;-80
2023/01/28 00:39:31;;;;;;;4.10;3.60;;;3.80;99.90;;;;;;5045667;28;20241;-88
2023/01/28 00:41:58;;;;;;;5.00;3.87;;;3.80;99.90;;;;;;5047170;28;20202;-82
2023/01/28 00:44:25;;;;;;;5.07;3.90;;;3.80;99.90;;;;;;5047091;28;20487;-80
2023/01/28 00:46:52;;;;;;;4.10;3.67;;;3.90;99.90;;;;;;5045295;28;20512;-80
2023/01/28 00:49:19;;;;;;;4.40;3.93;;;3.90;99.90;;;;;;5045114;28;20370;-82
2023/01/28 00:51:48;;;;;;;4.77;3.83;;;3.90;99.90;;;;;;5054189;28;20205;-81
2023/01/28 00:54:15;;;;;;;4.57;3.67;;;3.90;99.90;;;;;;5066419;28;20225;-87
2023/01/28 00:56:42;;;;;;;4.40;3.30;;;3.90;99.90;;;;;;5068753;28;20190;-87
2023/01/28 00:59:09;;;;;;;3.47;3.17;;;3.90;99.90;;;;;;5060143;28;20244;-83
2023/01/28 01:01:36;;;;;;;3.90;3.50;;;3.90;99.90;;;;;;5047067;28;20602;-84
2023/01/28 01:04:03;;;;;;;4.20;3.60;;;3.90;99.90;;;;;;5049324;28;20194;-81
2023/01/28 01:06:32;;;;;;;3.20;2.90;;;3.90;99.90;;;;;;5046949;28;20210;-82
2023/01/28 01:09:01;;;;;;;4.63;3.10;;;3.90;99.90;;;;;;5046139;28;20264;-83
2023/01/28 01:11:28;;;;;;;4.20;3.33;;;3.90;99.90;;;;;;5045623;28;20206;-83
2023/01/28 01:13:57;;;;;;;3.47;2.83;;;3.90;99.90;;;;;;5045754;28;20198;-83
2023/01/28 01:16:26;;;;;;;2.73;2.50;;;3.90;99.90;;;;;;5046237;28;20248;-80
2023/01/28 01:18:54;;;;;;;3.00;2.80;;;3.90;99.90;;;;;;5046186;28;20298;-80
2023/01/28 01:21:23;;;;;;;3.00;2.70;;;3.90;99.90;;;;;;5046991;28;20229;-86
2023/01/28 01:23:51;;;;;;;3.47;2.33;;;3.90;99.90;;;;;;5062882;28;20925;-89
2023/01/28 01:26:20;;;;;;;3.03;2.80;;;3.90;99.90;;;;;;5070226;28;20206;-84
2023/01/28 01:28:48;;;;;;;3.67;2.70;;;3.90;99.90;;;;;;5061369;28;20355;-85
2023/01/28 01:31:16;;;;;;;2.50;2.30;;;3.90;99.90;;;;;;5047633;28;20671;-82
2023/01/28 01:33:44;;;;;;;3.07;2.57;;;3.90;99.90;;;;;;5049368;28;20206;-80
2023/01/28 01:36:13;;;;;;;2.80;2.50;;;3.90;99.90;;;;;;5049721;28;20217;-86
2023/01/28 01:38:41;;;;;;;2.77;2.53;;;3.90;99.90;;;;;;5049083;28;20228;-82
2023/01/28 01:41:09;;;;;;;2.47;2.27;;;3.90;99.90;;;;;;5050080;28;20288;-85
2023/01/28 01:43:50;;;;;;;2.60;2.40;;;3.90;99.90;;;;;;5048621;28;20293;-86
2023/01/28 01:46:21;;;;;;;2.77;2.53;;;3.90;99.90;;;;;;5048540;28;20205;-82
2023/01/28 01:48:49;;;;;;;3.20;2.40;;;3.90;99.90;;;;;;5048582;28;20198;-84
2023/01/28 01:51:21;;;;;;;2.70;2.40;;;3.90;99.90;;;;;;5049585;28;20233;-87
2023/01/28 01:53:51;;;;;;;2.93;2.40;;;3.90;99.90;;;;;;5049101;28;20206;-80
2023/01/28 01:56:23;;;;;;;2.43;2.23;;;3.90;99.90;;;;;;5049198;28;20248;-87
2023/01/28 01:58:55;;;;;;;2.80;2.33;;;3.80;99.90;;;;;;5068853;28;20260;-80
2023/01/28 02:01:27;;;;;;;2.83;2.23;;;3.80;99.90;;;;;;5069047;28;20203;-85
2023/01/28 02:04:00;;;;;;;3.37;2.20;;;3.80;99.90;;;;;;5067556;28;20205;-89
2023/01/28 02:06:28;;;;;;;2.80;2.40;;;3.80;99.90;;;;;;5061122;28;20209;-85
2023/01/28 02:08:56;;;;;;;2.40;2.20;;;3.80;99.90;;;;;;5048877;28;20316;-87
2023/01/28 02:11:28;;;;;;;2.57;2.37;;;3.90;99.90;;;;;;5047763;28;20218;-90
2023/01/28 02:13:59;;;;;;;2.57;2.27;;;3.90;99.90;;;;;;5048361;28;20281;-84
2023/01/28 02:16:27;;;;;;;3.70;2.30;;;3.90;99.90;;;;;;5048642;28;20795;-87
2023/01/28 02:18:55;;;;;;;2.50;2.30;;;3.90;99.90;;;;;;5049472;28;20230;-92
2023/01/28 02:21:49;;;;;;;4.20;2.63;;;3.90;99.90;;;;;;5049979;28;20264;-90
2023/01/28 02:24:32;;;;;;;4.53;2.50;;;3.80;99.90;;;;;;5049285;28;20196;-82
2023/01/28 02:27:20;;;;;;;2.37;2.17;;;3.90;99.90;;;;;;5049474;28;20234;-88
2023/01/28 02:29:56;;;;;;;2.73;2.33;;;3.80;99.90;;;;;;5048827;28;20204;-90
2023/01/28 02:32:29;;;;;;;4.43;1.97;;;3.80;99.90;;;;;;5046305;28;20210;-83
2023/01/28 02:35:01;;;;;;;2.80;2.50;;;3.80;99.90;;;;;;5056591;28;20247;-81
2023/01/28 02:37:37;;;;;;;2.80;2.13;;;3.80;99.90;;;;;;5066683;28;20235;-82
2023/01/28 02:40:09;;;;;;;2.80;2.13;;;3.80;99.90;;;;;;5057377;28;20213;-85
2023/01/28 02:42:39;;;;;;;2.03;1.77;;;3.90;99.90;;;;;;5044427;28;20206;-81
2023/01/28 02:45:17;;;;;;;4.70;2.20;;;3.90;99.90;;;;;;5044410;28;20210;-82
2023/01/28 02:47:58;;;;;;;2.63;2.30;;;3.80;99.90;;;;;;5043454;28;20207;-80
2023/01/28 02:50:34;;;;;;;3.53;2.50;;;3.80;99.90;;;;;;5043201;28;20209;-80
2023/01/28 02:56:07;;;;;;;3.03;2.50;;;3.80;99.90;;;;;;5064754;28;20204;-80
2023/01/28 02:58:38;;;;;;;2.70;2.37;;;3.80;99.90;;;;;;5062037;28;20281;-80
2023/01/28 03:01:14;;;;;;;5.27;3.00;;;3.80;99.90;;;;;;5043651;28;20640;-82
2023/01/28 03:03:49;;;;;;;3.90;3.07;;;3.90;99.90;;;;;;5043939;28;20752;-83
2023/01/28 03:06:21;;;;;;;2.70;2.50;;;3.90;99.90;;;;;;5058872;28;20209;-85
2023/01/28 03:36:49;;;;;;;3.27;2.97;;;3.80;99.90;;;;;;5047387;28;20229;-88
2023/01/28 03:39:18;;;;;;;3.57;2.73;;;3.80;99.90;;;;;;5047966;28;20218;-90
2023/01/28 03:41:57;;;;;;;2.40;2.23;;;3.80;99.90;;;;;;5047167;28;20216;-82
2023/01/28 03:47:10;;;;;;;1.93;1.83;;;3.80;99.90;;;;;;5047886;28;20181;-83
2023/01/28 03:49:40;;;;;;;1.93;1.83;;;3.80;99.90;;;;;;5047525;28;20220;-89
2023/01/28 03:52:07;;;;;;;2.70;2.00;;;3.80;99.90;;;;;;5047969;28;20320;-91
2023/01/28 03:54:34;;;;;;;1.60;1.50;;;3.70;99.90;;;;;;5047519;28;20497;-83
2023/01/28 03:57:01;;;;;;;2.57;1.67;;;3.70;99.90;;;;;;5047003;28;20868;-81
2023/01/28 03:59:28;;;;;;;1.90;1.80;;;3.70;99.90;;;;;;5046476;28;20236;-84
2023/01/28 04:01:55;;;;;;;1.63;1.53;;;3.70;99.90;;;;;;5045525;28;20206;-89
2023/01/28 04:04:23;;;;;;;2.40;2.20;;;3.80;99.90;;;;;;5043690;28;20509;-81
2023/01/28 04:06:52;;;;;;;4.13;2.50;;;3.70;99.90;;;;;;5044246;28;20299;-80
2023/01/28 04:09:20;;;;;;;2.37;2.17;;;3.80;99.90;;;;;;5043630;28;20269;-83
2023/01/28 04:11:47;;;;;;;2.27;2.00;;;3.70;99.90;;;;;;5043985;28;20913;-90
2023/01/28 04:14:15;;;;;;;3.00;2.43;;;3.80;99.90;;;;;;5044352;28;20224;-86
2023/01/28 04:16:42;;;;;;;3.43;2.70;;;3.80;99.90;;;;;;5043270;28;20206;-80
2023/01/28 04:19:11;;;;;;;3.00;2.27;;;3.70;99.90;;;;;;5044167;28;20194;-81
2023/01/28 04:21:38;;;;;;;2.60;2.40;;;3.70;99.90;;;;;;5044002;28;20240;-81
2023/01/28 04:24:07;;;;;;;3.33;2.73;;;3.70;99.90;;;;;;5043294;28;20614;-81
2023/01/28 04:26:34;;;;;;;3.10;2.70;;;3.80;99.90;;;;;;5043850;28;20558;-81
2023/01/28 04:29:01;;;;;;;3.43;2.77;;;3.80;99.90;;;;;;5044075;28;20623;-81
2023/01/28 04:31:27;;;;;;;2.73;2.53;;;3.80;99.90;;;;;;5043269;28;20317;-81
2023/01/28 04:33:54;;;;;;;4.57;2.70;;;3.80;99.90;;;;;;5043100;28;20212;-80
2023/01/28 04:36:21;;;;;;;3.07;2.80;;;3.80;99.90;;;;;;5043335;28;20209;-91
2023/01/28 04:38:48;;;;;;;5.40;2.73;;;3.70;99.90;;;;;;5043141;28;20487;-84
2023/01/28 04:41:16;;;;;;;3.40;3.10;;;3.70;99.90;;;;;;5043120;28;20226;-84
2023/01/28 04:43:43;;;;;;;2.60;2.40;;;3.70;99.90;;;;;;5044529;28;20373;-87
2023/01/28 04:46:10;;;;;;;3.63;3.00;;;3.70;99.90;;;;;;5044699;28;20509;-87
2023/01/28 04:48:37;;;;;;;2.80;2.60;;;3.70;99.90;;;;;;5044736;28;20596;-81
2023/01/28 04:51:04;;;;;;;4.50;3.00;;;3.70;99.90;;;;;;5046554;28;20289;-87
2023/01/28 04:53:31;;;;;;;3.13;2.93;;;3.70;99.90;;;;;;5048175;28;20801;-89
2023/01/28 04:55:58;;;;;;;4.47;2.70;;;3.70;99.90;;;;;;5053421;28;20655;-87
2023/01/28 04:58:27;;;;;;;2.70;2.50;;;3.70;99.90;;;;;;5068368;28;20539;-87
2023/01/28 05:00:56;;;;;;;3.27;2.73;;;3.70;99.90;;;;;;5057922;28;20228;-84
2023/01/28 05:03:23;;;;;;;2.50;2.30;;;3.70;99.90;;;;;;5043030;28;20313;-81
2023/01/28 05:05:50;;;;;;;2.67;2.47;;;3.60;99.90;;;;;;5041803;28;20199;-80
2023/01/28 05:08:17;;;;;;;3.20;2.80;;;3.60;99.90;;;;;;5058294;28;20568;-82
2023/01/28 05:10:44;;;;;;;3.10;2.80;;;3.60;99.90;;;;;;5068332;28;20324;-89
2023/01/28 05:13:11;;;;;;;3.50;3.00;;;3.60;99.90;;;;;;5065649;28;20247;-87
2023/01/28 05:15:39;;;;;;;3.17;2.93;;;3.60;99.90;;;;;;5048828;28;20202;-91
2023/01/28 05:18:06;;;;;;;3.10;2.80;;;3.70;99.90;;;;;;5048842;28;20264;-92
2023/01/28 05:20:33;;;;;;;3.83;3.17;;;3.70;99.90;;;;;;5048608;28;20228;-91
2023/01/28 05:23:00;;;;;;;5.37;3.50;;;3.60;99.90;;;;;;5054717;28;20201;-92
2023/01/28 05:25:27;;;;;;;6.57;3.73;;;3.60;99.90;;;;;;5071288;28;20292;-91
2023/01/28 05:27:54;;;;;;;3.73;3.33;;;3.60;99.90;;;;;;5070941;28;20209;-84
2023/01/28 05:30:22;;;;;;;3.20;2.90;;;3.60;99.90;;;;;;5067032;28;20613;-88
2023/01/28 05:32:55;;;;;;;3.93;3.30;;;3.60;99.90;;;;;;5068974;28;20203;-89
2023/01/28 05:35:22;;;;;;;3.27;2.97;;;3.60;99.90;;;;;;5068056;28;20222;-85
2023/01/28 05:37:49;;;;;;;4.10;3.70;;;3.60;99.90;;;;;;5052138;28;20206;-85
2023/01/28 05:40:16;;;;;;;4.13;3.80;;;3.60;99.90;;;;;;5047288;28;20829;-84
2023/01/28 05:42:43;;;;;;;3.67;3.37;;;3.60;99.90;;;;;;5048913;28;20290;-85
2023/01/28 05:45:11;;;;;;;4.53;4.13;;;3.60;99.90;;;;;;5048824;28;20297;-81
2023/01/28 05:47:38;;;;;;;3.90;3.60;;;3.60;99.90;;;;;;5048333;28;20210;-83
2023/01/28 05:50:08;;;;;;;3.80;3.40;;;3.60;99.90;;;;;;5048968;28;20324;-81
2023/01/28 05:52:35;;;;;;;5.77;3.87;;;3.60;99.90;;;;;;5046976;28;20293;-82
2023/01/28 05:55:03;;;;;;;4.93;4.33;;;3.60;99.90;;;;;;5047706;28;20194;-85
2023/01/28 05:57:29;;;;;;;5.53;4.23;;;3.60;99.90;;;;;;5049393;28;20210;-83
2023/01/28 05:59:56;;;;;;;4.30;3.90;;;3.60;99.90;;;;;;5049541;28;20218;-83
2023/01/28 06:02:23;;;;;;;4.67;4.23;;;3.60;99.90;;;;;;5045799;28;20280;-80
2023/01/28 06:04:50;;;;;;;3.90;3.50;;;3.60;99.90;;;;;;5047449;28;20202;-85
2023/01/28 06:07:19;;;;;;;4.17;3.77;;;3.60;99.90;;;;;;5049335;28;20209;-84
2023/01/28 06:09:47;;;;;;;4.23;3.83;;;3.60;99.90;;;;;;5047574;28;20561;-81
2023/01/28 06:12:14;;;;;;;5.10;4.27;;;3.50;99.90;;;;;;5048680;28;20210;-82
2023/01/28 06:14:40;;;;;;;5.03;3.80;;;3.50;99.90;;;;;;5049087;28;20292;-84
2023/01/28 06:17:07;;;;;;;4.87;4.37;;;3.50;99.90;;;;;;5053041;22;20356;-80
2023/01/28 06:19:35;;;;;;;10.23;5.30;;;3.50;99.90;;;;;;5030658;28;20206;-81
2023/01/28 06:22:01;;;;;;;5.13;4.10;;;3.50;99.90;;;;;;5031660;28;20223;-81
2023/01/28 06:24:30;;;;;;;5.17;3.70;;;3.50;99.90;;;;;;5030057;28;20207;-82
2023/01/28 06:26:57;;;;;;;5.00;4.10;;;3.50;99.90;;;;;;5031497;28;20844;-85
2023/01/28 06:29:24;;;;;;;4.27;3.87;;;3.50;99.90;;;;;;5030558;28;20268;-82
2023/01/28 06:31:51;;;;;;;4.10;3.70;;;3.50;99.90;;;;;;5030433;28;20203;-86
2023/01/28 06:34:18;;;;;;;4.63;4.13;;;3.50;99.90;;;;;;5030533;28;20644;-81
2023/01/28 06:36:45;;;;;;;4.03;3.60;;;3.50;99.90;;;;;;5028397;28;20230;-86
2023/01/28 06:39:12;;;;;;;4.97;3.63;;;3.50;99.90;;;;;;5026296;28;20206;-79
2023/01/28 06:41:41;;;;;;;4.37;3.97;;;3.50;99.90;;;;;;5026337;28;20305;-86
2023/01/28 06:44:08;;;;;;;5.50;4.00;;;3.50;99.90;;;;;;5026764;28;20293;-84
2023/01/28 06:46:36;;;;;;;4.70;4.23;;;3.50;99.90;;;;;;5024382;28;20265;-87
2023/01/28 06:49:03;;;;;;;4.47;3.80;;;3.50;99.90;;;;;;5023717;28;20241;-83
2023/01/28 06:51:30;;;;;;;5.73;4.17;;;3.50;99.90;;;;;;5023839;28;20318;-80
2023/01/28 06:53:57;;;;;;;4.63;4.10;;;3.50;99.90;;;;;;5035678;28;20719;-86
2023/01/28 06:56:24;;;;;;;5.13;4.63;;;3.50;99.90;;;;;;5044584;28;20202;-80
2023/01/28 06:58:52;;;;;;;4.63;4.13;;;3.50;99.90;;;;;;5043411;28;20294;-81
2023/01/28 07:01:19;;;;;;;5.40;4.53;;;3.50;99.90;;;;;;5040941;28;20222;-80
2023/01/28 07:03:46;;;;;;;5.03;4.20;;;3.40;99.90;;;;;;5022627;28;20257;-80
2023/01/28 07:06:13;;;;;;;4.30;3.90;;;3.40;99.90;;;;;;5024046;28;20209;-80
2023/01/28 07:08:40;;;;;;;5.17;4.50;;;3.40;99.90;;;;;;5024197;28;20293;-79
2023/01/28 07:11:10;;;;;;;3.60;3.30;;;3.30;99.90;;;;;;5024958;28;20199;-81
2023/01/28 07:13:37;;;;;;;4.63;4.03;;;3.30;99.90;;;;;;5024224;28;20208;-79
2023/01/28 07:16:06;;;;;;;4.27;3.37;;;3.20;99.90;;;;;;5024169;28;20322;-80
2023/01/28 07:18:33;;;;;;;3.83;3.23;;;3.20;99.90;;;;;;5023980;28;20209;-82
2023/01/28 07:20:59;;;;;;;4.97;3.97;;;3.10;99.90;;;;;;5023009;28;20218;-79
2023/01/28 07:23:27;;;;;;;3.80;3.50;;;3.10;99.90;;;;;;5023719;28;20222;-80
2023/01/28 07:25:53;;;;;;;4.37;3.73;;;3.10;99.90;;;;;;5023782;28;20337;-79
2023/01/28 07:28:21;;;;;;;4.90;3.27;;;3.00;99.90;;;;;;5023966;28;20199;-79
2023/01/28 07:30:49;;;;;;;3.20;2.90;;;3.00;99.90;;;;;;5023250;28;20206;-78
2023/01/28 07:33:17;;;;;;;3.90;3.30;;;3.00;99.90;;;;;;5024165;28;20218;-81
2023/01/28 07:35:45;;;;;;;2.90;2.70;;;2.90;99.90;;;;;;5023147;28;20222;-84
2023/01/28 07:38:12;;;;;;;3.20;2.90;;;2.90;99.90;;;;;;5024987;28;20199;-80
2023/01/28 07:40:41;;;;;;;4.07;3.30;;;2.90;99.90;;;;;;5021004;28;20313;-81
2023/01/28 07:43:08;;;;;;;3.83;3.43;;;2.80;99.90;;;;;;5021719;28;20298;-80
2023/01/28 07:45:35;;;;;;;3.40;3.10;;;2.80;99.90;;;;;;5020546;28;20210;-79
2023/01/28 07:48:04;;;;;;;4.43;3.67;;;2.80;99.90;;;;;;5022675;28;20202;-79
2023/01/28 07:50:34;;;;;;;3.73;3.40;;;2.70;99.90;;;;;;5023595;28;20221;-80
2023/01/28 07:53:03;;;;;;;4.37;3.90;;;2.70;99.90;;;;;;5023980;28;20206;-81
2023/01/28 07:55:30;;;;;;;3.80;3.40;;;2.70;99.90;;;;;;5022536;28;20654;-79
2023/01/28 07:57:58;;;;;;;4.47;3.90;;;2.70;99.90;;;;;;5023172;28;20219;-80
2023/01/28 08:00:27;;;;;;;7.20;4.60;;;2.60;99.90;;;;;;5023391;28;20195;-79
2023/01/28 08:02:56;;;;;;;4.90;4.40;;;2.60;99.90;;;;;;5026236;28;20508;-82
2023/01/28 08:05:25;;;;;;;4.93;4.43;;;2.50;99.90;;;;;;5013833;28;20212;-84
2023/01/28 08:07:54;;;;;;;4.73;3.90;;;2.50;99.90;;;;;;5040944;28;20819;-81
2023/01/28 08:10:21;;;;;;;4.30;3.87;;;2.40;99.90;;;;;;5040055;28;20220;-79
2023/01/28 08:12:52;;;;;;;4.60;4.20;;;2.40;99.90;;;;;;5038978;28;20200;-80
2023/01/28 08:15:19;;;;;;;5.37;4.40;;;2.30;99.90;;;;;;5042426;28;20209;-80
2023/01/28 08:17:46;;;;;;;4.80;4.13;;;2.30;99.90;;;;;;5037520;28;20206;-80
2023/01/28 08:20:14;;;;;;;4.33;3.67;;;2.30;99.90;;;;;;5041444;28;20283;-90
2023/01/28 08:22:40;;;;;;;4.70;4.17;;;2.30;99.90;;;;;;5040402;28;20231;-84
2023/01/28 08:25:09;;;;;;;4.70;4.20;;;2.20;99.90;;;;;;5045973;28;20224;-81
2023/01/28 08:27:36;;;;;;;5.20;4.70;;;2.20;99.90;;;;;;5045743;28;20277;-86
2023/01/28 08:30:04;;;;;;;4.80;4.30;;;2.20;99.90;;;;;;5027815;28;20301;-83
2023/01/28 08:32:31;;;;;;;5.17;4.67;;;2.10;99.90;;;;;;5025943;28;20206;-83
2023/01/28 08:34:58;;;;;;;5.13;4.63;;;2.10;99.90;;;;;;5024123;28;20711;-81
2023/01/28 08:37:25;;;;;;;6.27;5.27;;;2.10;99.90;;;;;;5037049;28;20332;-83
2023/01/28 08:39:52;;;;;;;6.30;5.20;;;2.10;99.90;;;;;;5039980;28;20202;-80
2023/01/28 08:42:20;;;;;;;5.23;4.70;;;2.00;99.90;;;;;;5029810;28;20214;-82
2023/01/28 08:44:48;;;;;;;5.53;5.03;;;2.00;99.90;;;;;;5023859;28;20214;-84
2023/01/28 08:47:15;;;;;;;6.97;5.67;;;2.10;99.90;;;;;;5023610;28;20207;-82
2023/01/28 08:49:42;;;;;;;7.10;5.73;;;2.00;99.90;;;;;;5025340;28;20203;-86
2023/01/28 08:52:09;;;;;;;6.03;5.03;;;2.00;99.90;;;;;;5026303;28;20905;-86
2023/01/28 08:54:36;;;;;;;7.23;6.17;;;2.00;99.90;;;;;;5027189;28;20210;-86
2023/01/28 08:57:03;;;;;;;8.03;6.27;;;2.00;99.90;;;;;;5029830;28;20290;-81
2023/01/28 08:59:32;;;;;;;6.20;5.50;;;2.00;99.90;;;;;;5027249;28;20202;-84
2023/01/28 09:01:58;;;;;;;8.87;5.43;;;2.00;99.90;;;;;;5043314;28;20232;-85
2023/01/28 09:04:25;;;;;;;6.13;5.07;;;2.00;99.90;;;;;;5050328;28;20205;-83
2023/01/28 09:06:53;;;;;;;5.97;5.37;;;2.10;99.90;;;;;;5033156;28;20224;-86
2023/01/28 09:09:20;;;;;;;5.97;5.03;;;2.10;99.90;;;;;;5032029;28;20215;-85
2023/01/28 09:11:47;;;;;;;6.27;5.20;;;2.10;99.90;;;;;;5029617;28;20214;-84
2023/01/28 09:14:14;;;;;;;6.83;4.67;;;2.10;99.90;;;;;;5030153;28;20322;-80
2023/01/28 09:16:43;;;;;;;5.80;4.80;;;2.20;99.90;;;;;;5028693;28;21043;-84
2023/01/28 09:19:10;;;;;;;5.87;4.50;;;2.20;99.90;;;;;;5028660;28;20577;-87
2023/01/28 09:21:39;;;;;;;5.13;4.63;;;2.20;99.90;;;;;;5028580;28;20226;-83
2023/01/28 09:24:06;;;;;;;4.50;4.10;;;2.20;99.90;;;;;;5030355;28;20198;-86
2023/01/28 09:26:34;;;;;;;4.67;3.63;;;2.20;99.90;;;;;;5040323;28;20301;-86
2023/01/28 09:29:01;;;;;;;4.93;3.40;;;2.20;99.90;;;;;;5047219;28;20213;-89
2023/01/28 09:31:27;;;;;;;4.53;3.63;;;2.20;99.90;;;;;;5046499;28;20229;-87
2023/01/28 09:33:56;;;;;;;4.80;3.83;;;2.20;99.90;;;;;;5048524;28;20208;-88
2023/01/28 09:36:23;;;;;;;5.27;3.47;;;2.30;99.90;;;;;;5039495;28;20227;-87
2023/01/28 09:38:50;;;;;;;4.77;3.40;;;2.30;99.90;;;;;;5031460;28;20194;-88
2023/01/28 09:41:26;;;;;;;5.83;3.50;;;2.30;99.90;;;;;;5031974;28;20305;-88
2023/01/28 09:44:06;;;;;;;4.07;3.67;;;2.40;99.90;;;;;;5032706;28;20218;-88
2023/01/28 09:46:35;;;;;;;4.87;2.67;;;2.40;99.90;;;;;;5049273;28;20602;-87
2023/01/28 09:49:12;;;;;;;4.33;3.00;;;2.50;99.90;;;;;;5042976;28;20655;-89
2023/01/28 09:51:43;;;;;;;3.80;3.37;;;2.50;99.90;;;;;;5032307;28;20614;-87
2023/01/28 09:54:23;;;;;;;4.77;3.30;;;2.60;99.90;;;;;;5033059;28;20187;-89
2023/01/28 09:56:54;;;;;;;6.20;4.97;;;2.70;99.90;;;;;;5044118;28;20210;-88
2023/01/28 09:59:23;;;;;;;5.80;4.80;;;2.70;99.90;;;;;;5052870;28;20190;-88
2023/01/28 10:01:56;;;;;;;5.50;4.47;;;2.70;99.90;;;;;;5051819;28;20620;-88
2023/01/28 10:04:37;;;;;;;6.60;4.27;;;2.80;99.90;;;;;;5052485;28;20190;-89
2023/01/28 10:07:17;;;;;;;4.37;3.70;;;2.80;99.90;;;;;;5051261;28;20550;-87
2023/01/28 10:09:51;;;;;;;5.10;3.70;;;2.90;99.90;;;;;;5051403;28;20205;-89
2023/01/28 10:12:31;;;;;;;6.57;4.30;;;2.90;99.90;;;;;;5051023;28;20281;-88
2023/01/28 10:15:30;;;;;;;7.00;4.97;;;3.00;99.90;;;;;;5044668;28;20546;-87
2023/01/28 10:18:02;;;;;;;6.33;5.10;;;3.00;99.90;;;;;;5031926;28;20477;-88
2023/01/28 10:20:36;;;;;;;8.03;5.03;;;3.10;99.90;;;;;;5049765;28;20216;-87
2023/01/28 10:23:08;;;;;;;6.83;5.33;;;3.10;99.90;;;;;;5032801;28;20230;-85
2023/01/28 10:25:35;;;;;;;10.30;5.60;;;3.20;99.90;;;;;;5031122;28;20286;-79
2023/01/28 10:28:09;;;;;;;7.73;6.10;;;3.30;99.90;;;;;;5031536;28;20293;-90
2023/01/28 10:30:40;;;;;;;9.40;6.50;;;3.40;99.90;;;;;;5030884;28;20199;-91
2023/01/28 10:33:17;;;;;;;8.47;6.03;;;3.40;99.90;;;;;;5032401;28;20198;-92
2023/01/28 10:35:46;;;;;;;11.77;6.73;;;3.50;99.90;;;;;;5031810;28;20249;-91
2023/01/28 10:38:16;;;;;;;7.87;5.83;;;3.60;99.90;;;;;;5031924;28;20246;-91
2023/01/28 10:40:43;;;;;;;5.87;4.87;;;3.70;99.90;;;;;;5031829;28;20653;-91
2023/01/28 10:43:11;;;;;;;7.00;5.40;;;3.70;99.90;;;;;;5031379;28;20227;-90
2023/01/28 10:45:43;;;;;;;7.10;5.10;;;3.80;99.90;;;;;;5041202;28;20260;-90
2023/01/28 10:48:21;;;;;;;7.27;5.70;;;3.90;99.90;;;;;;5051836;28;20229;-91
2023/01/28 10:50:58;;;;;;;7.53;5.30;;;3.90;99.90;;;;;;5050404;28;20288;-90
2023/01/28 10:53:35;;;;;;;8.60;5.20;;;4.00;99.90;;;;;;5032045;28;20186;-91
2023/01/28 10:56:04;;;;;;;8.43;6.17;;;4.10;99.90;;;;;;5032210;28;20185;-90
2023/01/28 10:58:34;;;;;;;7.70;5.03;;;4.20;99.90;;;;;;5030911;28;20203;-90
2023/01/28 11:01:03;;;;;;;8.73;5.27;;;4.30;99.90;;;;;;5031209;28;20221;-89
2023/01/28 11:03:30;;;;;;;6.20;4.43;;;4.40;99.90;;;;;;5031425;28;20360;-88
2023/01/28 11:05:59;;;;;;;6.63;4.60;;;4.50;99.90;;;;;;5031023;28;20199;-89
2023/01/28 11:08:28;;;;;;;8.27;4.67;;;4.50;99.90;;;;;;5031574;28;20301;-88
2023/01/28 11:10:57;;;;;;;7.80;4.20;;;4.70;99.90;;;;;;5031578;28;20635;-86
2023/01/28 11:13:28;;;;;;;7.93;4.30;;;4.80;99.90;;;;;;5030025;28;20662;-84
2023/01/28 11:16:03;;;;;;;10.93;5.10;;;4.80;99.90;;;;;;5028186;28;20549;-86
2023/01/28 11:18:32;;;;;;;8.87;4.37;;;5.00;99.90;;;;;;5028625;28;21082;-89
2023/01/28 11:21:05;;;;;;;6.93;4.00;;;5.00;97.60;;;;;;5031412;28;20228;-90
2023/01/28 11:23:34;;;;;;;7.33;3.87;;;5.10;94.60;;;;;;5030875;28;20231;-89
2023/01/28 11:26:05;;;;;;;8.57;4.63;;;5.20;99.60;;;;;;5030494;28;20237;-88
2023/01/28 11:28:33;;;;;;;7.93;3.87;;;5.30;99.90;;;;;;5030428;28;20206;-89
2023/01/28 11:31:03;;;;;;;6.87;3.40;;;5.40;67.70;;;;;;5030671;28;20297;-88
2023/01/28 11:33:36;;;;;;;4.57;3.43;;;5.40;37.20;;;;;;5027108;28;20186;-84
2023/01/28 11:36:14;;;;;;;6.20;3.80;;;5.50;52.50;;;;;;5027837;28;20218;-83
2023/01/28 11:38:50;;;;;;;6.30;3.40;;;5.60;56.00;;;;;;5026652;28;20210;-79
2023/01/28 11:41:17;;;;;;;6.97;3.97;;;5.70;37.30;;;;;;5025131;28;20202;-80
2023/01/28 11:43:45;;;;;;;5.07;3.43;;;5.70;1.00;;;;;;5022658;28;20237;-82
2023/01/28 11:46:32;;;;;;;8.73;4.00;;;5.80;1.00;;;;;;5024474;28;20206;-85
2023/01/28 11:49:05;;;;;;;8.53;4.33;;;5.80;1.00;;;;;;5028969;28;20222;-83
2023/01/28 11:51:42;;;;;;;6.97;4.23;;;5.80;1.00;;;;;;5042836;28;20197;-87
2023/01/28 11:54:21;;;;;;;10.30;4.20;;;5.80;1.00;;;;;;5049026;28;20193;-86
2023/01/28 11:57:06;;;;;;;5.87;4.00;;;5.80;1.00;;;;;;5049231;28;21030;-87
2023/01/28 11:59:50;;;;;;;6.50;5.20;;;5.80;1.00;;;;;;5048241;28;20225;-87
2023/01/28 12:02:39;;;;;;;6.90;3.70;;;5.80;1.00;;;;;;5048047;28;20226;-88
2023/01/28 12:05:33;;;;;;;2.97;2.40;;;5.80;1.00;;;;;;5048654;28;20233;-88
2023/01/28 12:08:09;;;;;;;2.83;1.60;;;5.80;1.00;;;;;;5048725;28;20904;-87
2023/01/28 12:10:44;;;;;;;3.97;1.30;;;5.90;1.00;;;;;;5049311;28;20189;-85
2023/01/28 12:13:28;;;;;;;2.03;0.97;;;6.00;1.00;;;;;;5048990;28;20451;-86
2023/01/28 12:16:18;;;;;;;2.77;1.27;;;6.10;99.90;;;;;;5048717;28;20248;-86
2023/01/28 12:19:19;;;;;;;2.93;1.60;;;6.20;99.90;;;;;;5048665;28;20198;-81
2023/01/28 12:22:01;;;;;;;2.03;1.80;;;6.30;99.90;;;;;;4989220;28;20513;-87
2023/01/28 12:24:45;;;;;;;1.63;0.90;;;6.40;99.90;;;;;;5028802;28;20647;-84
2023/01/28 12:27:27;;;;;;;2.63;0.97;;;6.30;99.90;;;;;;5028882;28;20194;-86
2023/01/28 12:30:02;;;;;;;3.40;1.07;;;6.30;99.90;;;;;;5030870;28;20277;-87
2023/01/28 12:32:40;;;;;;;1.97;1.10;;;6.30;99.90;;;;;;5015621;28;20202;-84
2023/01/28 12:35:33;;;;;;;2.73;1.43;;;6.30;99.90;;;;;;5033252;28;20324;-82
2023/01/28 12:38:13;;;;;;;1.83;1.10;;;6.30;99.90;;;;;;5032315;28;20211;-87
2023/01/28 12:40:58;;;;;;;3.27;1.70;;;6.30;99.90;;;;;;5041403;28;20216;-87
2023/01/28 12:43:37;;;;;;;3.63;2.03;;;6.40;99.90;;;;;;5047156;28;20225;-80
2023/01/28 12:46:11;;;;;;;6.90;3.10;;;6.40;99.90;;;;;;5047196;28;20214;-81
2023/01/28 12:48:41;;;;;;;3.80;2.30;;;6.40;99.90;;;;;;5031257;28;20197;-81
2023/01/28 12:51:14;;;;;;;7.07;3.47;;;6.40;99.90;;;;;;5026982;28;20191;-80
2023/01/28 12:53:46;;;;;;;5.43;3.37;;;6.50;99.90;;;;;;5026799;28;20951;-80
2023/01/28 12:56:18;;;;;;;7.27;3.27;;;6.50;99.90;;;;;;5026846;28;20248;-81
2023/01/28 12:58:50;;;;;;;5.90;3.90;;;6.50;99.90;;;;;;5026184;28;20778;-80
2023/01/28 13:01:23;;;;;;;5.97;3.50;;;6.50;99.90;;;;;;5027635;28;20659;-81
2023/01/28 13:03:55;;;;;;;7.67;3.93;;;6.60;99.90;;;;;;5026405;28;20377;-80
2023/01/28 13:06:28;;;;;;;7.60;3.43;;;6.60;99.90;;;;;;5025954;28;20531;-81
2023/01/28 13:09:00;;;;;;;6.43;2.60;;;6.60;99.90;;;;;;5025347;28;20213;-82
2023/01/28 13:11:35;;;;;;;2.83;1.67;;;6.60;99.90;;;;;;5024498;28;20206;-81
2023/01/28 13:14:03;;;;;;;2.80;2.00;;;6.80;99.90;;;;;;5026307;28;20796;-82
2023/01/28 13:16:30;;;;;;;3.33;2.13;;;6.80;99.90;;;;;;5025896;28;20753;-82
2023/01/28 13:19:06;;;;;;;4.27;1.57;;;6.80;99.90;;;;;;5025094;28;20486;-82
2023/01/28 13:21:36;;;;;;;4.67;1.87;;;6.70;99.90;;;;;;5025660;28;20857;-82
2023/01/28 13:24:21;;;;;;;4.43;1.90;;;6.70;99.90;;;;;;5026578;28;20317;-81
2023/01/28 13:26:51;;;;;;;3.70;2.00;;;6.80;99.90;;;;;;5026415;28;20285;-81
2023/01/28 13:29:21;;;;;;;4.70;2.27;;;6.70;99.90;;;;;;5026936;28;20206;-81
2023/01/28 13:31:50;;;;;;;3.10;2.00;;;6.70;99.90;;;;;;5025802;28;20701;-82
2023/01/28 13:34:31;;;;;;;3.33;2.17;;;6.60;99.90;;;;;;5026149;28;20322;-79
2023/01/28 13:37:00;;;;;;;5.70;1.87;;;6.60;99.90;;;;;;5026566;28;20226;-82
2023/01/28 13:39:29;;;;;;;3.90;1.50;;;6.60;99.90;;;;;;5025101;28;20209;-80
2023/01/28 13:42:20;;;;;;;1.63;1.30;;;6.60;99.90;;;;;;5025124;28;20289;-80
2023/01/28 13:44:47;;;;;;;1.70;1.00;;;6.60;99.90;;;;;;5025841;28;20572;-82
2023/01/28 13:47:21;;;;;;;2.37;1.30;;;6.60;99.90;;;;;;5026002;28;20532;-81